首页
METAR-TAF:

METAR-TAF

机场 :

汶萊國際機場

文莱, 文莱

纬度: 04-56N, 经度: 114-56E, 海拔: 22米

当前天气观测

该预报发布于49分钟前的00:30 UTC
风速6节,风向北转东北
温度 29°C
湿度 89%
气压 1012 hPa
能见度10公里或以上
少量云层高于1500英尺
多云层高于30000英尺

METAR: WBSB 260030Z 03006KT 9999 FEW015 BKN300 29/27 Q1012 NOSIG

时间: 09:19 (01:19 UTC)

预报

该预报发布于2小时和19分钟前的23:00 UTC
预报有效从26日的 00点(UTC)到 27日的 06点(UTC)
风速6节,风向北转东北
能见度10公里或以上
少量云层高于1500英尺
成为
从 26日的 06点(UTC)到 26日的 08点(UTC)
风速12节,风向北转西北
少量云层高于1600英尺
少量云层高于1700英尺, 积雨云.
成为
从 26日的 12点(UTC)到 26日的 14点(UTC)
风速8节,风向北转东北
散云层高于1500英尺
少量云层高于1600英尺, 积雨云.

TAF: WBSB 252300Z 2600/2706 02006KT 9999 FEW015 BECMG 2606/2608 34012KT FEW016 FEW017CB BECMG 2612/2614 02008KT SCT015 FEW016CB

超过4000个机场的气象观测和天气预报(METAR&TAF报告)。

可查询的气象台以黄色和红色小点在地图上表示。

将鼠标移到小点上方,可查看气象台名称。

然后点击查看天气观测和预报。

如需切换地图:点击带黑十字的绿色按钮放大地图;点击带横线的绿色按钮缩小地图;或者点击绿色箭头查看邻近地区的地图。


METAR-TAF: